PWSweather.com
Personal Weather Stations
Station Observations
SWHWX01
St AppolinardFR 38160

St AppolinardFR 38160

Lat: 45.191, Lon: 5.268

Elevation: 1460

Station Type: Davis Vantage Pro2 Plus

www.sweetwebhome.com/?show=wxindex

High Low Average
Temperature 74.3°F23.5°C 50.2°F10.1°C 62.6°F17.0°C
Dew Point 58.4°F14.7°C 41.5°F5.3°C 49.7°F9.8°C
Winds 4.5 mph 7.2 kmh Calm Calm 2.0 mph ESE3.2 kmh ESE
Wind Gusts 9.0 mph14.5 kmh -- 3.0 mph4.8 kmh
Humidity 74% 53% 63%
Pressure 30.14 in1020.7 mb 30.02 in1016.6 mb -
Precipitation 0.00 in0.0 mm - -
Hour Temp Dew Point Humidity Winds Wind Gusts Pressure Precip Precip Rate Daily Precip Total
12:00 AM 53.0°F11.7°C 42.0°F5.6°C 66% Calm Calm -- 30.08 in1018.6 mb - 0.00 in0.0 mm 0.00 in0.0 mm
12:30 AM 52.6°F11.4°C 42.0°F5.6°C 67% Calm Calm 2.0 mph3.2 kmh 30.08 in1018.6 mb - 0.00 in0.0 mm 0.00 in0.0 mm
01:00 AM 53.1°F11.7°C 42.1°F5.6°C 66% 2.7 mph NE4.3 kmh NE 3.0 mph4.8 kmh 30.08 in1018.6 mb - 0.00 in0.0 mm 0.00 in0.0 mm
01:30 AM 55.0°F12.8°C 42.2°F5.7°C 62% 1.5 mph NE2.4 kmh NE 4.0 mph6.4 kmh 30.09 in1019.0 mb - 0.00 in0.0 mm 0.00 in0.0 mm
02:00 AM 54.2°F12.3°C 42.3°F5.7°C 64% 2.0 mph NNE3.2 kmh NNE 3.0 mph4.8 kmh 30.10 in1019.3 mb - 0.00 in0.0 mm 0.00 in0.0 mm
02:30 AM 53.5°F11.9°C 42.4°F5.8°C 66% Calm Calm -- 30.11 in1019.6 mb - 0.00 in0.0 mm 0.00 in0.0 mm
03:00 AM 52.1°F11.2°C 42.2°F5.7°C 69% 1.0 mph NNE1.6 kmh NNE 2.0 mph3.2 kmh 30.10 in1019.3 mb - 0.00 in0.0 mm 0.00 in0.0 mm
03:30 AM 50.5°F10.3°C 41.9°F5.5°C 72% 3.2 mph NNE5.1 kmh NNE 4.0 mph6.4 kmh 30.10 in1019.3 mb - 0.00 in0.0 mm 0.00 in0.0 mm
04:00 AM 51.0°F10.6°C 42.0°F5.6°C 71% 0.6 mph NNE1.0 kmh NNE 1.0 mph1.6 kmh 30.09 in1019.0 mb - 0.00 in0.0 mm 0.00 in0.0 mm
04:30 AM 50.2°F10.1°C 42.2°F5.7°C 74% 1.4 mph NNE2.3 kmh NNE 2.0 mph3.2 kmh 30.09 in1019.0 mb - 0.00 in0.0 mm 0.00 in0.0 mm
05:00 AM 50.5°F10.3°C 42.1°F5.6°C 73% 3.4 mph NNE5.5 kmh NNE 4.0 mph6.4 kmh 30.09 in1019.0 mb - 0.00 in0.0 mm 0.00 in0.0 mm
05:30 AM 53.1°F11.7°C 42.4°F5.8°C 67% 3.1 mph NNE5.0 kmh NNE 4.0 mph6.4 kmh 30.10 in1019.3 mb - 0.00 in0.0 mm 0.00 in0.0 mm
06:00 AM 52.8°F11.6°C 42.1°F5.6°C 67% 1.3 mph NNE2.1 kmh NNE 2.0 mph3.2 kmh 30.10 in1019.3 mb - 0.00 in0.0 mm 0.00 in0.0 mm
06:30 AM 51.7°F10.9°C 41.5°F5.3°C 68% 0.7 mph NNE1.1 kmh NNE 2.0 mph3.2 kmh 30.11 in1019.6 mb - 0.00 in0.0 mm 0.00 in0.0 mm
07:00 AM 51.2°F10.7°C 42.1°F5.6°C 71% 1.2 mph NNE1.9 kmh NNE 2.0 mph3.2 kmh 30.12 in1020.0 mb - 0.00 in0.0 mm 0.00 in0.0 mm
07:30 AM 53.8°F12.1°C 43.9°F6.6°C 69% 0.7 mph NNE1.1 kmh NNE 2.0 mph3.2 kmh 30.11 in1019.6 mb - 0.00 in0.0 mm 0.00 in0.0 mm
08:00 AM 54.7°F12.6°C 44.4°F6.9°C 68% Calm Calm -- 30.11 in1019.6 mb - 0.00 in0.0 mm 0.00 in0.0 mm
08:30 AM 56.0°F13.3°C 45.2°F7.3°C 67% 0.8 mph NNE1.3 kmh NNE 2.0 mph3.2 kmh 30.12 in1020.0 mb - 0.00 in0.0 mm 0.00 in0.0 mm
09:00 AM 58.4°F14.7°C 44.6°F7.0°C 60% 0.1 mph NNE0.2 kmh NNE 1.0 mph1.6 kmh 30.12 in1020.0 mb - 0.00 in0.0 mm 0.00 in0.0 mm
09:30 AM 60.3°F15.7°C 47.3°F8.5°C 62% 0.6 mph NE1.0 kmh NE 2.0 mph3.2 kmh 30.13 in1020.3 mb - 0.00 in0.0 mm 0.00 in0.0 mm
10:00 AM 60.0°F15.6°C 46.1°F7.8°C 60% 2.2 mph ESE3.5 kmh ESE 3.0 mph4.8 kmh 30.13 in1020.3 mb - 0.00 in0.0 mm 0.00 in0.0 mm
10:30 AM 61.6°F16.4°C 48.0°F8.9°C 61% 0.8 mph ESE1.3 kmh ESE 2.0 mph3.2 kmh 30.14 in1020.7 mb - 0.00 in0.0 mm 0.00 in0.0 mm
11:00 AM 62.5°F16.9°C 48.0°F8.9°C 59% 2.5 mph SE4.0 kmh SE 3.0 mph4.8 kmh 30.13 in1020.3 mb - 0.00 in0.0 mm 0.00 in0.0 mm
11:30 AM 62.9°F17.2°C 48.8°F9.3°C 60% 2.6 mph SE4.2 kmh SE 4.0 mph6.4 kmh 30.13 in1020.3 mb - 0.00 in0.0 mm 0.00 in0.0 mm
12:00 PM 64.3°F17.9°C 49.2°F9.6°C 58% Calm Calm 1.0 mph1.6 kmh 30.12 in1020.0 mb - 0.00 in0.0 mm 0.00 in0.0 mm
12:30 PM 66.7°F19.3°C 50.0°F10.0°C 55% 1.2 mph SE1.9 kmh SE 2.0 mph3.2 kmh 30.11 in1019.6 mb - 0.00 in0.0 mm 0.00 in0.0 mm
01:00 PM 69.6°F20.9°C 51.7°F10.9°C 53% 4.2 mph S6.8 kmh S 6.0 mph9.7 kmh 30.11 in1019.6 mb - 0.00 in0.0 mm 0.00 in0.0 mm
01:30 PM 71.1°F21.7°C 53.6°F12.0°C 54% 4.5 mph S7.2 kmh S 6.0 mph9.7 kmh 30.10 in1019.3 mb - 0.00 in0.0 mm 0.00 in0.0 mm
02:00 PM 70.7°F21.5°C 54.8°F12.7°C 57% 3.2 mph S5.1 kmh S 6.0 mph9.7 kmh 30.09 in1019.0 mb - 0.00 in0.0 mm 0.00 in0.0 mm
02:30 PM 72.7°F22.6°C 56.6°F13.7°C 57% 3.7 mph S6.0 kmh S 4.0 mph6.4 kmh 30.08 in1018.6 mb - 0.00 in0.0 mm 0.00 in0.0 mm
03:00 PM 72.2°F22.3°C 56.6°F13.7°C 58% 0.6 mph S1.0 kmh S 1.0 mph1.6 kmh 30.07 in1018.3 mb - 0.00 in0.0 mm 0.00 in0.0 mm
03:30 PM 72.5°F22.5°C 55.0°F12.8°C 54% 2.9 mph SSW4.7 kmh SSW 6.0 mph9.7 kmh 30.06 in1017.9 mb - 0.00 in0.0 mm 0.00 in0.0 mm
04:00 PM 72.2°F22.3°C 57.1°F13.9°C 59% 2.5 mph S4.0 kmh S 3.0 mph4.8 kmh 30.05 in1017.6 mb - 0.00 in0.0 mm 0.00 in0.0 mm
04:30 PM 74.0°F23.3°C 57.3°F14.1°C 56% 3.7 mph SSE6.0 kmh SSE 9.0 mph14.5 kmh 30.04 in1017.3 mb - 0.00 in0.0 mm 0.00 in0.0 mm
05:00 PM 74.3°F23.5°C 58.1°F14.5°C 57% 2.2 mph SSW3.5 kmh SSW 6.0 mph9.7 kmh 30.04 in1017.3 mb - 0.00 in0.0 mm 0.00 in0.0 mm
05:30 PM 73.9°F23.3°C 57.2°F14.0°C 56% 1.5 mph S2.4 kmh S 4.0 mph6.4 kmh 30.03 in1016.9 mb - 0.00 in0.0 mm 0.00 in0.0 mm
06:00 PM 73.4°F23.0°C 57.7°F14.3°C 58% 0.6 mph S1.0 kmh S 3.0 mph4.8 kmh 30.02 in1016.6 mb - 0.00 in0.0 mm 0.00 in0.0 mm
06:30 PM 71.7°F22.1°C 58.4°F14.7°C 63% 0.8 mph S1.3 kmh S 1.0 mph1.6 kmh 30.02 in1016.6 mb - 0.00 in0.0 mm 0.00 in0.0 mm
07:00 PM 70.7°F21.5°C 57.0°F13.9°C 62% 0.9 mph S1.4 kmh S 3.0 mph4.8 kmh 30.02 in1016.6 mb - 0.00 in0.0 mm 0.00 in0.0 mm
07:30 PM 70.8°F21.6°C 56.7°F13.7°C 61% 1.1 mph S1.8 kmh S 2.0 mph3.2 kmh 30.03 in1016.9 mb - 0.00 in0.0 mm 0.00 in0.0 mm
08:00 PM 70.8°F21.6°C 56.2°F13.4°C 60% 2.1 mph S3.4 kmh S 4.0 mph6.4 kmh 30.04 in1017.3 mb - 0.00 in0.0 mm 0.00 in0.0 mm
08:30 PM 70.4°F21.3°C 56.3°F13.5°C 61% 4.1 mph S6.6 kmh S 8.0 mph12.9 kmh 30.04 in1017.3 mb - 0.00 in0.0 mm 0.00 in0.0 mm
09:00 PM 69.3°F20.7°C 56.6°F13.7°C 64% 1.6 mph S2.6 kmh S 3.0 mph4.8 kmh 30.04 in1017.3 mb - 0.00 in0.0 mm 0.00 in0.0 mm
09:30 PM 68.6°F20.3°C 56.8°F13.8°C 66% 1.5 mph S2.4 kmh S 4.0 mph6.4 kmh 30.04 in1017.3 mb - 0.00 in0.0 mm 0.00 in0.0 mm
10:00 PM 67.9°F19.9°C 56.5°F13.6°C 67% 1.0 mph S1.6 kmh S 3.0 mph4.8 kmh 30.04 in1017.3 mb - 0.00 in0.0 mm 0.00 in0.0 mm
10:30 PM 67.6°F19.8°C 56.6°F13.7°C 68% 0.4 mph S0.6 kmh S 2.0 mph3.2 kmh 30.04 in1017.3 mb - 0.00 in0.0 mm 0.00 in0.0 mm
11:00 PM 67.2°F19.6°C 56.7°F13.7°C 69% 2.9 mph S4.7 kmh S 4.0 mph6.4 kmh 30.03 in1016.9 mb - 0.00 in0.0 mm 0.00 in0.0 mm
11:30 PM 67.0°F19.4°C 56.9°F13.8°C 70% 1.5 mph S2.4 kmh S 4.0 mph6.4 kmh 30.03 in1016.9 mb - 0.00 in0.0 mm 0.00 in0.0 mm